createdAt,value
2018-04-02T00:01:22.443Z,46.97
2018-04-02T00:03:49.951Z,51.57
2018-04-02T00:06:17.440Z,48.63
2018-04-02T00:08:44.939Z,55.13
2018-04-02T00:11:12.443Z,59.20
2018-04-02T00:13:40.344Z,55.53
2018-04-02T00:16:07.856Z,59.43
2018-04-02T00:18:35.357Z,61.20
2018-04-02T00:21:02.858Z,73.40
2018-04-02T00:23:30.374Z,61.70
2018-04-02T00:25:57.876Z,68.50
2018-04-02T00:28:25.381Z,71.90
2018-04-02T00:30:52.879Z,69.47
2018-04-02T00:33:20.366Z,77.13
2018-04-02T00:35:48.256Z,66.10
2018-04-02T00:38:15.754Z,57.47
2018-04-02T00:40:43.284Z,58.20
2018-04-02T00:43:10.784Z,51.23
2018-04-02T00:45:38.271Z,54.70
2018-04-02T00:48:06.164Z,51.97
2018-04-02T00:50:33.647Z,56.57
2018-04-02T00:53:01.156Z,53.03
2018-04-02T00:55:28.665Z,51.60
2018-04-02T00:57:56.171Z,53.97
2018-04-02T01:00:23.656Z,53.60
2018-04-02T01:02:51.172Z,52.27
2018-04-02T01:05:19.121Z,54.73
2018-04-02T01:07:46.572Z,53.47
2018-04-02T01:10:14.079Z,56.67
2018-04-02T01:12:41.559Z,54.73
2018-04-02T01:15:09.055Z,55.77
2018-04-02T01:17:36.551Z,53.37
2018-04-02T01:20:04.041Z,54.90
2018-04-02T01:22:31.541Z,58.77
2018-04-02T01:24:59.425Z,57.17
2018-04-02T01:27:26.932Z,59.03
2018-04-02T01:29:54.444Z,60.13
2018-04-02T01:32:21.951Z,59.57
2018-04-02T01:34:49.469Z,55.40
2018-04-02T01:37:16.968Z,55.43
2018-04-02T01:39:44.460Z,53.47
2018-04-02T01:42:11.964Z,55.70
2018-04-02T01:44:39.527Z,55.53
2018-04-02T01:47:07.036Z,56.13
2018-04-02T01:49:34.523Z,58.20
2018-04-02T01:52:02.055Z,59.90
2018-04-02T01:54:29.550Z,58.13
2018-04-02T01:56:57.046Z,60.67
2018-04-02T01:59:24.964Z,62.27
2018-04-02T02:01:52.459Z,62.83
2018-04-02T02:04:19.947Z,59.43
2018-04-02T02:06:47.460Z,58.57
2018-04-02T02:09:14.972Z,64.67
2018-04-02T02:11:42.474Z,60.60
2018-04-02T02:14:09.972Z,62.40
2018-04-02T02:16:37.863Z,61.60
2018-04-02T02:19:05.364Z,62.30
2018-04-02T02:21:32.867Z,63.93
2018-04-02T02:24:00.385Z,60.73
2018-04-02T02:26:28.286Z,63.30
2018-04-02T02:28:55.795Z,63.97
2018-04-02T02:31:23.304Z,71.27
2018-04-02T02:33:50.816Z,71.60
2018-04-02T02:36:18.740Z,70.57
2018-04-02T02:38:46.220Z,68.33
2018-04-02T02:41:13.728Z,67.27
2018-04-02T02:43:41.275Z,68.77
2018-04-02T02:46:09.277Z,68.77
2018-04-02T02:48:36.780Z,69.93
2018-04-02T02:51:04.275Z,73.83
2018-04-02T02:53:31.777Z,73.27
2018-04-02T02:55:59.274Z,75.57
2018-04-02T02:58:27.167Z,73.63
2018-04-02T03:00:54.678Z,79.90
2018-04-02T03:03:22.184Z,85.57
2018-04-02T03:05:49.676Z,80.20
2018-04-02T03:08:17.183Z,78.07
2018-04-02T03:10:44.690Z,76.73
2018-04-02T03:13:12.212Z,78.20
2018-04-02T03:15:39.707Z,78.87
2018-04-02T03:18:07.191Z,78.03
2018-04-02T03:20:35.089Z,74.05
2018-04-02T03:23:02.607Z,78.87
2018-04-02T03:25:30.516Z,73.62
2018-04-02T03:27:58.020Z,75.27
2018-04-02T03:30:25.552Z,75.20
2018-04-02T03:32:53.085Z,77.55
2018-04-02T03:35:20.575Z,75.30
2018-04-02T03:37:48.301Z,78.80
2018-04-02T03:40:15.820Z,79.30
2018-04-02T03:42:43.479Z,82.77
2018-04-02T03:45:11.035Z,82.78
2018-04-02T03:47:38.633Z,82.97
2018-04-02T03:50:06.188Z,80.20
2018-04-02T03:52:34.067Z,83.80
2018-04-02T03:55:01.575Z,92.82
2018-04-02T03:57:29.083Z,90.93
2018-04-02T03:59:56.604Z,92.78
2018-04-02T04:02:24.511Z,92.30
2018-04-02T04:04:52.024Z,91.77
2018-04-02T04:07:19.523Z,98.20
2018-04-02T04:09:47.039Z,114.95
2018-04-02T04:12:15.068Z,124.78
2018-04-02T04:14:43.046Z,139.20
2018-04-02T04:17:10.556Z,106.85
2018-04-02T04:19:38.067Z,100.43
2018-04-02T04:22:05.572Z,122.40
2018-04-02T04:24:33.477Z,132.12
2018-04-02T04:27:01.533Z,118.62
2018-04-02T04:29:29.107Z,125.75
2018-04-02T04:31:56.615Z,121.75
2018-04-02T04:34:24.123Z,118.40
2018-04-02T04:36:51.675Z,116.90
2018-04-02T04:39:19.226Z,130.32
2018-04-02T04:41:47.045Z,130.25
2018-04-02T04:44:14.745Z,129.75
2018-04-02T04:46:42.698Z,117.30
2018-04-02T04:49:10.207Z,114.05
2018-04-02T04:51:37.916Z,129.32
2018-04-02T04:54:06.028Z,135.25
2018-04-02T04:56:33.531Z,135.95
2018-04-02T04:59:01.454Z,133.45
2018-04-02T05:01:28.951Z,124.53
2018-04-02T05:03:56.450Z,134.98
2018-04-02T05:06:23.976Z,129.40
2018-04-02T05:08:51.875Z,129.70
2018-04-02T05:11:19.399Z,140.95
2018-04-02T05:13:47.312Z,139.10
2018-04-02T05:16:14.875Z,147.48
2018-04-02T05:18:42.382Z,139.73
2018-04-02T05:21:10.308Z,142.40
2018-04-02T05:23:37.983Z,142.90
2018-04-02T05:26:05.555Z,139.15
2018-04-02T05:28:33.075Z,140.75
2018-04-02T05:31:00.909Z,132.93
2018-04-02T05:33:28.461Z,147.77
2018-04-02T05:35:56.380Z,145.82
2018-04-02T05:38:23.871Z,165.52
2018-04-02T05:40:51.782Z,183.07
2018-04-02T05:43:19.291Z,174.55
2018-04-02T05:45:46.800Z,187.48
2018-04-02T05:48:14.327Z,175.45
2018-04-02T05:50:41.837Z,178.77
2018-04-02T05:53:10.346Z,172.62
2018-04-02T05:55:37.859Z,182.27
2018-04-02T05:58:05.373Z,192.35
2018-04-02T06:00:32.895Z,190.70
2018-04-02T06:03:00.396Z,184.98
2018-04-02T06:05:27.895Z,175.87
2018-04-02T06:07:55.410Z,188.35
2018-04-02T06:10:22.911Z,177.95
2018-04-02T06:12:50.415Z,180.13
2018-04-02T06:15:17.923Z,171.87
2018-04-02T06:17:45.431Z,164.43
2018-04-02T06:20:13.344Z,160.37
2018-04-02T06:22:40.865Z,163.77
2018-04-02T06:25:08.396Z,155.37
2018-04-02T06:27:35.915Z,154.47
2018-04-02T06:30:03.421Z,151.57
2018-04-02T06:32:31.718Z,152.50
2018-04-02T06:34:59.242Z,146.90
2018-04-02T06:37:26.740Z,149.13
2018-04-02T06:39:54.259Z,137.37
2018-04-02T06:42:21.790Z,138.97
2018-04-02T06:44:49.275Z,137.93
2018-04-02T06:47:16.776Z,141.93
2018-04-02T06:49:44.279Z,131.50
2018-04-02T06:52:11.776Z,131.03
2018-04-02T06:54:39.661Z,133.27
2018-04-02T06:57:07.152Z,129.13
2018-04-02T06:59:34.665Z,129.77
2018-04-02T07:02:02.166Z,128.20
2018-04-02T07:04:29.710Z,127.13
2018-04-02T07:06:57.207Z,122.90
2018-04-02T07:09:25.106Z,122.40
2018-04-02T07:11:52.614Z,121.57
2018-04-02T07:14:20.103Z,113.73
2018-04-02T07:16:48.560Z,109.67
2018-04-02T07:19:16.066Z,117.17
2018-04-02T07:21:43.592Z,106.87
2018-04-02T07:24:11.482Z,116.20
2018-04-02T07:26:39.437Z,110.87
2018-04-02T07:29:06.944Z,103.60
2018-04-02T07:31:34.439Z,103.97
2018-04-02T07:34:02.346Z,101.83
2018-04-02T07:36:29.841Z,70.40
2018-04-02T07:38:57.331Z,99.20
2018-04-02T07:41:24.852Z,108.53
2018-04-02T07:43:52.347Z,99.53
2018-04-02T07:46:20.254Z,106.87
2018-04-02T07:48:47.783Z,109.57
2018-04-02T07:51:15.292Z,107.77
2018-04-02T07:53:42.791Z,110.00
2018-04-02T07:56:10.308Z,103.60
2018-04-02T07:58:37.811Z,104.83
2018-04-02T08:01:05.349Z,108.57
2018-04-02T08:03:33.240Z,97.07
2018-04-02T08:06:00.742Z,101.50
2018-04-02T08:08:28.243Z,98.20
2018-04-02T08:10:55.751Z,100.67
2018-04-02T08:13:23.256Z,83.07
2018-04-02T08:15:51.196Z,88.30
2018-04-02T08:18:18.673Z,88.17
2018-04-02T08:20:46.558Z,83.50
2018-04-02T08:23:14.072Z,69.17
2018-04-02T08:25:41.563Z,60.40
2018-04-02T08:28:09.459Z,76.80
2018-04-02T08:30:36.968Z,83.00
2018-04-02T08:33:04.473Z,86.50
2018-04-02T08:35:31.980Z,84.27
2018-04-02T08:37:59.496Z,81.03
2018-04-02T08:40:27.020Z,78.80
2018-04-02T08:42:54.911Z,75.90
2018-04-02T08:45:22.430Z,91.07
2018-04-02T08:47:50.445Z,75.77
2018-04-02T08:50:18.726Z,78.57
2018-04-02T08:52:46.237Z,91.47
2018-04-02T08:55:14.133Z,83.53
2018-04-02T08:57:42.175Z,77.03
2018-04-02T09:00:10.089Z,77.17
2018-04-02T09:02:37.587Z,51.87
2018-04-02T09:05:05.086Z,80.17
2018-04-02T09:07:32.591Z,70.23
2018-04-02T09:10:00.088Z,77.63
2018-04-02T09:12:27.585Z,68.17
2018-04-02T09:14:55.092Z,62.63
2018-04-02T09:17:22.986Z,69.73
2018-04-02T09:19:50.479Z,65.13
2018-04-02T09:22:17.975Z,61.73
2018-04-02T09:24:45.475Z,62.07
2018-04-02T09:27:12.976Z,60.30
2018-04-02T09:29:40.952Z,61.20
2018-04-02T09:32:08.933Z,61.43
2018-04-02T09:34:36.456Z,60.20
2018-04-02T09:37:03.986Z,60.27
2018-04-02T09:39:31.505Z,56.23
2018-04-02T09:41:59.011Z,58.10
2018-04-02T09:44:26.719Z,53.23
2018-04-02T09:46:54.628Z,53.83
2018-04-02T09:49:22.173Z,45.90
2018-04-02T09:51:49.683Z,47.10
2018-04-02T09:54:17.577Z,38.70
2018-04-02T09:56:45.076Z,40.70
2018-04-02T09:59:12.627Z,44.30
2018-04-02T10:01:40.127Z,39.50
2018-04-02T10:04:08.064Z,41.70
2018-04-02T10:06:35.595Z,44.60
2018-04-02T10:09:03.149Z,38.20
2018-04-02T10:11:30.651Z,41.63
2018-04-02T10:13:58.819Z,37.83
2018-04-02T10:16:26.336Z,34.40
2018-04-02T10:18:53.849Z,28.00
2018-04-02T10:21:21.395Z,34.70
2018-04-02T10:23:48.936Z,32.77
2018-04-02T10:26:16.458Z,41.17
2018-04-02T10:28:43.973Z,37.30
2018-04-02T10:31:11.886Z,36.53
2018-04-02T10:33:39.385Z,34.27
2018-04-02T10:36:06.902Z,34.40
2018-04-02T10:38:34.423Z,32.07
2018-04-02T10:41:01.961Z,33.57
2018-04-02T10:43:29.506Z,33.03
2018-04-02T10:45:57.007Z,21.03
2018-04-02T10:48:24.512Z,27.73
2018-04-02T10:50:52.032Z,33.27
2018-04-02T10:53:19.578Z,31.03
2018-04-02T10:55:47.081Z,28.77
2018-04-02T10:58:20.514Z,28.63
2018-04-02T11:00:48.451Z,22.77
2018-04-02T11:03:16.189Z,27.30
2018-04-02T11:05:43.955Z,25.87
2018-04-02T11:08:11.834Z,24.77
2018-04-02T11:10:39.356Z,26.03
2018-04-02T11:13:07.259Z,28.10
2018-04-02T11:15:34.771Z,22.03
2018-04-02T11:18:02.722Z,27.17
2018-04-02T11:20:30.207Z,26.63
2018-04-02T11:22:58.118Z,27.63
2018-04-02T11:25:25.620Z,22.63
2018-04-02T11:27:53.589Z,24.67
2018-04-02T11:30:21.514Z,22.97
2018-04-02T11:32:49.025Z,24.30
2018-04-02T11:35:16.530Z,22.77
2018-04-02T11:37:44.052Z,25.00
2018-04-02T11:40:11.569Z,16.27
2018-04-02T11:42:39.083Z,23.70
2018-04-02T11:45:06.591Z,23.27
2018-04-02T11:47:34.104Z,20.37
2018-04-02T11:50:02.423Z,16.67
2018-04-02T11:52:29.928Z,18.03
2018-04-02T11:54:57.448Z,17.13
2018-04-02T11:57:25.191Z,20.03
2018-04-02T11:59:52.733Z,20.83
2018-04-02T12:02:20.303Z,16.43
2018-04-02T12:04:48.533Z,11.60
2018-04-02T12:07:16.109Z,16.13
2018-04-02T12:09:43.753Z,17.47
2018-04-02T12:12:11.308Z,17.27
2018-04-02T12:14:38.872Z,17.93
2018-04-02T12:17:06.403Z,14.57
2018-04-02T12:19:34.303Z,17.13
2018-04-02T12:22:10.573Z,15.73
2018-04-02T12:24:41.954Z,18.30
2018-04-02T12:27:09.601Z,16.23
2018-04-02T12:29:37.151Z,14.13
2018-04-02T12:32:04.679Z,14.10
2018-04-02T12:34:32.216Z,19.70
2018-04-02T12:37:00.157Z,10.30
2018-04-02T12:39:27.673Z,17.53
2018-04-02T12:41:58.523Z,16.80
2018-04-02T12:44:26.041Z,17.50
2018-04-02T12:46:53.567Z,15.87
2018-04-02T12:49:21.068Z,17.17
2018-04-02T12:51:48.585Z,16.33
2018-04-02T12:54:16.118Z,15.20
2018-04-02T12:56:43.629Z,16.47
2018-04-02T12:59:11.173Z,15.77
2018-04-02T13:01:39.095Z,16.07
2018-04-02T13:04:06.592Z,9.77
2018-04-02T13:06:34.128Z,15.93
2018-04-02T13:09:02.386Z,14.50
2018-04-02T13:11:29.904Z,17.50
2018-04-02T13:13:57.421Z,13.83
2018-04-02T13:16:24.923Z,16.03
2018-04-02T13:18:52.459Z,16.70
2018-04-02T13:21:20.370Z,19.87
2018-04-02T13:23:47.936Z,17.43
2018-04-02T13:26:15.447Z,25.73
2018-04-02T13:28:43.339Z,15.43
2018-04-02T13:31:10.895Z,17.27
2018-04-02T13:33:38.417Z,16.77
2018-04-02T13:36:05.928Z,14.47
2018-04-02T13:38:33.419Z,14.20
2018-04-02T13:41:00.941Z,12.40
2018-04-02T13:43:28.492Z,16.73
2018-04-02T13:45:55.983Z,14.53
2018-04-02T13:48:23.480Z,15.30
2018-04-02T13:50:51.403Z,17.80
2018-04-02T13:53:18.908Z,19.80
2018-04-02T13:55:46.832Z,13.90
2018-04-02T13:58:14.374Z,15.33
2018-04-02T14:00:41.956Z,15.50
2018-04-02T14:03:09.546Z,14.57
2018-04-02T14:05:37.445Z,12.73
2018-04-02T14:08:05.023Z,12.13
2018-04-02T14:10:32.555Z,11.00
2018-04-02T14:13:00.097Z,10.20
2018-04-02T14:15:28.320Z,11.87
2018-04-02T14:17:55.820Z,8.53
2018-04-02T14:20:23.739Z,9.17
2018-04-02T14:22:51.391Z,10.27
2018-04-02T14:25:18.947Z,10.40
2018-04-02T14:27:46.456Z,10.20
2018-04-02T14:30:14.494Z,7.03
2018-04-02T14:32:42.036Z,6.57
2018-04-02T14:35:09.633Z,8.33
2018-04-02T14:37:37.153Z,10.10
2018-04-02T14:40:04.683Z,9.90
2018-04-02T14:42:32.221Z,9.63
2018-04-02T14:44:59.761Z,9.33
2018-04-02T14:47:27.691Z,11.50
2018-04-02T14:49:55.402Z,9.87
2018-04-02T14:52:23.413Z,11.13
2018-04-02T14:54:51.634Z,10.00
2018-04-02T14:57:20.166Z,11.50
2018-04-02T14:59:47.758Z,11.70
2018-04-02T15:02:15.308Z,10.50
2018-04-02T15:04:42.803Z,9.80
2018-04-02T15:07:10.763Z,10.73
2018-04-02T15:09:38.705Z,10.70
2018-04-02T15:12:06.209Z,11.40
2018-04-02T15:14:34.335Z,9.67
2018-04-02T15:17:01.929Z,9.60
2018-04-02T15:19:29.856Z,10.83
2018-04-02T15:21:57.513Z,11.40
2018-04-02T15:24:25.076Z,11.43
2018-04-02T15:26:53.265Z,10.40
2018-04-02T15:29:21.790Z,9.90
2018-04-02T15:31:49.890Z,9.50
2018-04-02T15:34:21.717Z,9.87
2018-04-02T15:36:49.613Z,11.47
2018-04-02T15:39:17.231Z,10.77
2018-04-02T15:41:45.408Z,9.70
2018-04-02T15:44:13.467Z,10.90
2018-04-02T15:46:44.494Z,9.90
2018-04-02T15:49:12.851Z,9.23
2018-04-02T15:51:40.354Z,11.80
2018-04-02T15:54:08.254Z,11.30
2018-04-02T15:56:36.353Z,11.13
2018-04-02T15:59:03.944Z,10.07
2018-04-02T16:01:31.441Z,10.97
2018-04-02T16:03:59.044Z,7.57
2018-04-02T16:06:26.572Z,10.17
2018-04-02T16:08:54.054Z,9.27
2018-04-02T16:11:21.862Z,9.10
2018-04-02T16:13:49.404Z,9.50
2018-04-02T16:16:17.143Z,9.17
2018-04-02T16:18:44.660Z,12.37
2018-04-02T16:21:12.202Z,10.10
2018-04-02T16:23:39.719Z,11.07
2018-04-02T16:26:07.811Z,9.83
2018-04-02T16:28:36.017Z,11.30
2018-04-02T16:31:04.079Z,11.30
2018-04-02T16:33:31.582Z,11.93
2018-04-02T16:35:59.805Z,12.97
2018-04-02T16:38:28.611Z,13.10
2018-04-02T16:40:56.279Z,10.80
2018-04-02T16:43:24.336Z,10.27
2018-04-02T16:45:51.832Z,12.20
2018-04-02T16:48:19.322Z,10.50
2018-04-02T16:50:47.217Z,11.17
2018-04-02T16:53:14.731Z,11.03
2018-04-02T16:55:42.221Z,12.30
2018-04-02T16:58:09.725Z,11.90
2018-04-02T17:00:37.221Z,13.27
2018-04-02T17:03:05.259Z,15.53
2018-04-02T17:05:32.816Z,12.00
2018-04-02T17:08:00.388Z,13.40
2018-04-02T17:10:29.312Z,12.37
2018-04-02T17:12:56.827Z,15.13
2018-04-02T17:15:24.341Z,15.27
2018-04-02T17:17:52.798Z,15.60
2018-04-02T17:20:20.708Z,18.83
2018-04-02T17:22:48.237Z,15.63
2018-04-02T17:25:15.811Z,18.27
2018-04-02T17:27:43.443Z,19.07
2018-04-02T17:30:11.396Z,16.93
2018-04-02T17:32:41.320Z,14.77
2018-04-02T17:35:09.775Z,13.67
2018-04-02T17:37:39.692Z,11.90
2018-04-02T17:40:07.238Z,13.23
2018-04-02T17:42:34.774Z,13.13
2018-04-02T17:45:02.329Z,13.70
2018-04-02T17:47:29.868Z,12.97
2018-04-02T17:49:57.405Z,14.13
2018-04-02T17:52:24.986Z,12.83
2018-04-02T17:54:52.976Z,11.53
2018-04-02T17:57:21.165Z,10.20
2018-04-02T17:59:48.717Z,12.63
2018-04-02T18:02:16.311Z,9.83
2018-04-02T18:04:44.519Z,9.47
2018-04-02T18:07:12.257Z,9.13
2018-04-02T18:09:39.805Z,8.53
2018-04-02T18:12:07.373Z,9.77
2018-04-02T18:14:35.326Z,6.77
2018-04-02T18:17:02.844Z,10.93
2018-04-02T18:19:30.493Z,9.40
2018-04-02T18:21:58.019Z,9.13
2018-04-02T18:24:26.213Z,10.77
2018-04-02T18:26:53.870Z,9.53
2018-04-02T18:29:21.598Z,10.03
2018-04-02T18:31:50.235Z,8.77
2018-04-02T18:34:19.812Z,10.23
2018-04-02T18:36:47.456Z,7.47
2018-04-02T18:39:15.032Z,7.40
2018-04-02T18:41:49.134Z,8.20
2018-04-02T18:44:17.846Z,8.53
2018-04-02T18:46:45.418Z,10.03
2018-04-02T18:49:12.953Z,10.07
2018-04-02T18:51:40.642Z,10.63
2018-04-02T18:54:08.160Z,8.63
2018-04-02T18:56:36.165Z,9.47
2018-04-02T18:59:03.731Z,8.77
2018-04-02T19:01:31.247Z,8.23
2018-04-02T19:03:58.773Z,8.43
2018-04-02T19:06:28.305Z,8.03
2018-04-02T19:08:55.841Z,6.23
2018-04-02T19:11:27.728Z,9.80
2018-04-02T19:13:55.619Z,7.77
2018-04-02T19:16:25.089Z,5.97
2018-04-02T19:18:55.061Z,5.30
2018-04-02T19:21:32.486Z,6.17
2018-04-02T19:24:01.194Z,8.47
2018-04-02T19:26:34.839Z,8.00
2018-04-02T19:29:02.408Z,7.83
2018-04-02T19:31:29.968Z,7.70
2018-04-02T19:33:57.544Z,7.83
2018-04-02T19:36:25.131Z,6.77
2018-04-02T19:38:53.064Z,7.70
2018-04-02T19:41:20.628Z,8.10
2018-04-02T19:43:48.163Z,7.57
2018-04-02T19:46:15.702Z,10.40
2018-04-02T19:48:43.259Z,8.13
2018-04-02T19:51:10.811Z,6.53
2018-04-02T19:53:38.392Z,7.83
2018-04-02T19:56:05.937Z,7.60
2018-04-02T19:58:33.459Z,6.70
2018-04-02T20:01:01.011Z,7.90
2018-04-02T20:03:28.962Z,7.10
2018-04-02T20:05:56.515Z,7.43
2018-04-02T20:08:24.034Z,6.97
2018-04-02T20:10:51.570Z,6.43
2018-04-02T20:13:19.075Z,6.67
2018-04-02T20:15:46.607Z,6.10
2018-04-02T20:18:14.120Z,7.10
2018-04-02T20:20:41.680Z,6.80
2018-04-02T20:23:09.639Z,7.63
2018-04-02T20:25:37.200Z,9.13
2018-04-02T20:28:04.770Z,5.17
2018-04-02T20:30:32.707Z,6.63
2018-04-02T20:33:00.219Z,7.63
2018-04-02T20:35:27.733Z,7.87
2018-04-02T20:37:55.251Z,5.07
2018-04-02T20:40:22.748Z,6.60
2018-04-02T20:42:50.278Z,6.63
2018-04-02T20:45:17.775Z,5.00
2018-04-02T20:47:45.681Z,6.17
2018-04-02T20:50:13.183Z,7.13
2018-04-02T20:52:40.679Z,7.03
2018-04-02T20:55:08.175Z,6.03
2018-04-02T20:57:35.681Z,7.17
2018-04-02T21:00:03.219Z,6.67
2018-04-02T21:02:30.752Z,6.20
2018-04-02T21:05:03.580Z,6.77
2018-04-02T21:07:31.502Z,7.53
2018-04-02T21:09:58.983Z,7.73
2018-04-02T21:12:26.463Z,7.00
2018-04-02T21:14:53.984Z,6.70
2018-04-02T21:17:21.480Z,7.67
2018-04-02T21:19:49.377Z,7.50
2018-04-02T21:22:16.884Z,6.47
2018-04-02T21:24:44.371Z,6.53
2018-04-02T21:27:11.893Z,6.77
2018-04-02T21:29:39.380Z,4.87
2018-04-02T21:32:07.264Z,5.23
2018-04-02T21:34:34.815Z,5.87
2018-04-02T21:37:02.259Z,6.27
2018-04-02T21:39:29.787Z,10.10
2018-04-02T21:41:57.279Z,6.70
2018-04-02T21:44:25.158Z,7.37
2018-04-02T21:46:52.680Z,9.27
2018-04-02T21:49:20.163Z,8.33
2018-04-02T21:51:47.683Z,6.77
2018-04-02T21:54:15.238Z,6.30
2018-04-02T21:56:42.752Z,7.73
2018-04-02T21:59:10.246Z,9.80
2018-04-02T22:01:37.747Z,7.30
2018-04-02T22:04:05.632Z,7.80
2018-04-02T22:06:45.027Z,7.20
2018-04-02T22:09:12.519Z,6.63
2018-04-02T22:11:40.053Z,7.10
2018-04-02T22:14:07.943Z,7.27
2018-04-02T22:16:35.477Z,7.43
2018-04-02T22:19:03.387Z,8.37
2018-04-02T22:21:30.872Z,8.83
2018-04-02T22:23:58.359Z,6.90
2018-04-02T22:26:26.247Z,7.23
2018-04-02T22:28:53.751Z,7.50
2018-04-02T22:31:21.264Z,6.77
2018-04-02T22:33:48.767Z,9.03
2018-04-02T22:36:16.259Z,8.03
2018-04-02T22:38:44.141Z,6.80
2018-04-02T22:41:11.632Z,5.57
2018-04-02T22:43:39.546Z,6.43
2018-04-02T22:46:07.435Z,6.43
2018-04-02T22:48:34.977Z,5.90
2018-04-02T22:51:02.459Z,5.77
2018-04-02T22:53:29.963Z,7.03
2018-04-02T22:55:57.471Z,7.37
2018-04-02T22:58:24.959Z,5.53
2018-04-02T23:00:52.461Z,5.10
2018-04-02T23:03:20.384Z,5.73
2018-04-02T23:05:47.904Z,5.73
2018-04-02T23:08:15.398Z,6.93
2018-04-02T23:10:42.901Z,5.83
2018-04-02T23:13:10.788Z,4.80
2018-04-02T23:15:38.272Z,5.13
2018-04-02T23:18:05.842Z,5.33
2018-04-02T23:20:33.328Z,4.17
2018-04-02T23:23:00.841Z,5.20
2018-04-02T23:25:28.350Z,5.47
2018-04-02T23:27:56.230Z,5.00
2018-04-02T23:30:24.177Z,5.80
2018-04-02T23:32:51.755Z,5.60
2018-04-02T23:35:19.700Z,5.47
2018-04-02T23:37:47.187Z,5.63
2018-04-02T23:40:14.679Z,5.90
2018-04-02T23:42:42.179Z,5.17
2018-04-02T23:45:10.107Z,5.67
2018-04-02T23:47:37.622Z,5.37
2018-04-02T23:50:05.123Z,5.53
2018-04-02T23:52:32.626Z,3.73
2018-04-02T23:55:00.518Z,6.70
2018-04-02T23:57:28.015Z,4.13
2018-04-02T23:59:55.503Z,5.37
